KAAF/AAF METAR and TAF weather

Enter ICAO airport designator
Station Type Date Time Source
KAAF METAR 2019/12/06 03:53 UTC NOAA

KAAF 060353Z AUTO 00000KT 10SM CLR 07/04 A3017 RMK AO2 SLP216 T00670044


Station Type Date Time Source
KAAF Decoded METAR 2019/12/06 03:53 UTC NOAA

APALACHICOLA MUNICIPAL AIRPORT, FL, United States (KAAF) 29-44N 085-01W 5M
Dec 05, 2019 - 10:53 PM EST / 2019.12.06 0353 UTC
Wind: Calm:0
Visibility: 10 mile(s):0
Sky conditions: clear
Temperature: 44.1 F (6.7 C)
Dew Point: 39.9 F (4.4 C)
Relative Humidity: 85%
Pressure (altimeter): 30.17 in. Hg (1021 hPa)
ob: KAAF 060353Z AUTO 00000KT 10SM CLR 07/04 A3017 RMK AO2 SLP216 T00670044
cycle: 4

Station Type Date Time Source
KAAF TAF UTC NOAA

Error!

Example: see airport list